Time,TemperatureF,DewpointF,PressureIn,WindDirection,WindDirectionDegrees,WindSpeedMPH,WindSpeedGustMPH,Humidity,HourlyPrecipIn,Conditions,Clouds,dailyrainin,SoftwareType,DateUTC
2015-09-04 00:09:00,56.0,51.9,29.86,NW,313,0.0,0.0,86,0.00,,CLR,0.00,VWS V14.00,2015-09-04 07:09:00,
2015-09-04 00:19:00,55.7,51.6,29.86,NW,313,0.0,0.0,86,0.00,,CLR,0.00,VWS V14.00,2015-09-04 07:19:00,
2015-09-04 00:29:00,55.6,51.8,29.86,NW,313,0.0,1.0,87,0.00,,CLR,0.00,VWS V14.00,2015-09-04 07:29:00,
2015-09-04 00:39:00,55.4,51.9,29.86,NW,313,0.0,3.0,88,0.00,,CLR,0.00,VWS V14.00,2015-09-04 07:39:00,
2015-09-04 00:49:00,55.6,52.1,29.86,NW,313,0.0,0.0,88,0.00,,CLR,0.00,VWS V14.00,2015-09-04 07:49:00,
2015-09-04 00:59:00,55.6,52.1,29.86,NW,313,0.0,0.0,88,0.00,,CLR,0.00,VWS V14.00,2015-09-04 07:59:00,
2015-09-04 01:09:00,55.5,51.7,29.85,NW,313,0.0,0.0,87,0.00,,CLR,0.00,VWS V14.00,2015-09-04 08:09:00,
2015-09-04 01:19:00,55.2,51.4,29.85,NW,313,0.0,0.0,87,0.00,,CLR,0.00,VWS V14.00,2015-09-04 08:19:00,
2015-09-04 01:29:00,55.0,51.5,29.85,NW,313,0.0,0.0,88,0.00,,CLR,0.00,VWS V14.00,2015-09-04 08:29:00,
2015-09-04 01:39:00,54.9,51.4,29.85,NW,313,0.0,0.0,88,0.00,,FEW016,0.00,VWS V14.00,2015-09-04 08:39:00,
2015-09-04 01:49:00,54.9,51.4,29.85,NW,313,0.0,0.0,88,0.00,,FEW016,0.00,VWS V14.00,2015-09-04 08:49:00,
2015-09-04 01:59:00,54.7,51.5,29.84,NW,313,0.0,0.0,89,0.00,,FEW016,0.00,VWS V14.00,2015-09-04 08:59:00,
2015-09-04 02:09:00,55.0,51.8,29.84,NW,313,0.0,0.0,89,0.00,,FEW016,0.00,VWS V14.00,2015-09-04 09:09:00,
2015-09-04 02:19:00,55.5,52.6,29.84,NW,313,0.0,2.0,90,0.00,,FEW016,0.00,VWS V14.00,2015-09-04 09:19:00,
2015-09-04 02:29:00,55.6,51.8,29.83,NW,314,0.0,5.0,87,0.00,,FEW016,0.00,VWS V14.00,2015-09-04 09:29:00,
2015-09-04 02:39:00,55.7,52.2,29.83,NW,314,0.0,3.0,88,0.00,,FEW016,0.00,VWS V14.00,2015-09-04 09:39:00,
2015-09-04 02:49:00,55.8,52.0,29.83,NW,304,0.0,6.0,87,0.00,,FEW016,0.00,VWS V14.00,2015-09-04 09:49:00,
2015-09-04 02:59:00,56.9,52.8,29.83,South,169,9.0,9.0,86,0.00,,FEW016,0.00,VWS V14.00,2015-09-04 09:59:00,
2015-09-04 03:09:00,57.3,52.5,29.83,SSE,167,0.0,9.0,84,0.00,,OVC021,0.00,VWS V14.00,2015-09-04 10:09:00,
2015-09-04 03:19:00,56.5,52.0,29.83,SSE,167,0.0,0.0,85,0.00,,OVC021,0.00,VWS V14.00,2015-09-04 10:19:00,
2015-09-04 03:29:00,56.3,52.5,29.83,SSE,167,0.0,2.0,87,0.00,,OVC021,0.00,VWS V14.00,2015-09-04 10:29:00,
2015-09-04 03:39:00,56.3,52.5,29.83,SSE,167,0.0,0.0,87,0.00,,OVC021,0.00,VWS V14.00,2015-09-04 10:39:00,
2015-09-04 03:49:00,56.4,52.6,29.83,SSE,167,0.0,0.0,87,0.00,,OVC021,0.00,VWS V14.00,2015-09-04 10:49:00,
2015-09-04 03:59:00,56.5,52.4,29.83,SSE,163,0.0,5.0,86,0.00,,OVC021,0.00,VWS V14.00,2015-09-04 10:59:00,